createdAt,value
2019-04-20T00:00:55.072Z,64.67
2019-04-20T00:03:38.058Z,67.25
2019-04-20T00:06:09.254Z,68.90
2019-04-20T00:08:46.267Z,73.78
2019-04-20T00:11:28.180Z,67.00
2019-04-20T00:14:08.302Z,63.58
2019-04-20T00:16:39.829Z,66.10
2019-04-20T00:19:22.577Z,56.15
2019-04-20T00:22:00.297Z,60.63
2019-04-20T00:24:37.582Z,53.65
2019-04-20T00:27:40.534Z,53.17
2019-04-20T00:30:08.930Z,56.80
2019-04-20T00:32:49.017Z,65.42
2019-04-20T00:35:08.207Z,72.62
2019-04-20T00:37:44.607Z,70.78
2019-04-20T00:40:21.502Z,76.42
2019-04-20T00:42:59.799Z,70.22
2019-04-20T00:45:40.074Z,63.33
2019-04-20T00:48:22.479Z,60.83
2019-04-20T00:51:11.558Z,44.30
2019-04-20T00:53:33.349Z,58.95
2019-04-20T00:56:07.457Z,59.27
2019-04-20T00:58:58.092Z,56.35
2019-04-20T01:01:44.162Z,65.12
2019-04-20T01:06:50.005Z,55.67
2019-04-20T01:09:18.234Z,49.20
2019-04-20T01:11:54.523Z,50.52
2019-04-20T01:14:39.944Z,42.03
2019-04-20T01:17:11.985Z,42.25
2019-04-20T01:19:48.809Z,44.18
2019-04-20T01:22:28.268Z,43.00
2019-04-20T01:25:09.774Z,46.08
2019-04-20T01:28:01.027Z,39.60
2019-04-20T01:30:25.152Z,38.45
2019-04-20T01:33:12.460Z,42.50
2019-04-20T01:35:52.167Z,39.83
2019-04-20T01:38:26.328Z,41.70
2019-04-20T01:40:50.569Z,40.10
2019-04-20T01:43:27.037Z,39.30
2019-04-20T01:46:11.263Z,38.78
2019-04-20T01:48:41.946Z,41.10
2019-04-20T01:51:23.419Z,35.10
2019-04-20T01:54:12.108Z,42.23
2019-04-20T01:56:47.583Z,34.85
2019-04-20T01:59:39.950Z,36.40
2019-04-20T02:02:15.229Z,36.20
2019-04-20T02:04:53.436Z,37.67
2019-04-20T02:07:35.026Z,38.02
2019-04-20T02:10:11.358Z,38.30
2019-04-20T02:12:50.313Z,38.20
2019-04-20T02:15:30.997Z,40.48
2019-04-20T02:18:14.929Z,43.83
2019-04-20T02:21:01.384Z,41.25
2019-04-20T02:23:33.014Z,41.08
2019-04-20T02:25:55.082Z,43.38
2019-04-20T02:28:58.102Z,45.45
2019-04-20T02:32:04.994Z,41.70
2019-04-20T02:37:24.597Z,40.23
2019-04-20T02:40:05.219Z,44.40
2019-04-20T02:47:54.937Z,40.23
2019-04-20T02:50:30.862Z,41.98
2019-04-20T02:53:15.585Z,40.45
2019-04-20T02:55:53.445Z,43.70
2019-04-20T02:58:23.640Z,46.28
2019-04-20T03:00:52.741Z,41.37
2019-04-20T03:03:19.566Z,45.10
2019-04-20T03:06:01.337Z,44.08
2019-04-20T03:08:38.218Z,44.73
2019-04-20T03:11:26.221Z,50.55
2019-04-20T03:13:57.851Z,44.98
2019-04-20T03:16:32.183Z,51.55
2019-04-20T03:19:12.948Z,46.73
2019-04-20T03:22:01.380Z,47.00
2019-04-20T03:24:33.741Z,45.90
2019-04-20T03:27:07.915Z,44.93
2019-04-20T03:29:52.663Z,48.35
2019-04-20T03:35:25.051Z,42.93
2019-04-20T03:37:46.567Z,46.15
2019-04-20T03:40:19.121Z,56.70
2019-04-20T03:42:39.976Z,82.60
2019-04-20T03:45:19.341Z,53.38
2019-04-20T03:48:08.314Z,52.90
2019-04-20T03:50:50.815Z,47.73
2019-04-20T03:53:29.815Z,49.05
2019-04-20T03:56:19.489Z,47.75
2019-04-20T03:58:57.229Z,45.43
2019-04-20T04:02:09.313Z,47.98
2019-04-20T04:04:27.155Z,54.05
2019-04-20T04:06:51.695Z,51.92
2019-04-20T04:09:32.966Z,48.13
2019-04-20T04:12:41.776Z,45.73
2019-04-20T04:15:16.759Z,47.58
2019-04-20T04:17:53.116Z,45.35
2019-04-20T04:20:38.720Z,43.58
2019-04-20T04:23:22.089Z,47.90
2019-04-20T04:26:05.853Z,45.75
2019-04-20T04:28:40.992Z,42.38
2019-04-20T04:31:24.243Z,46.02
2019-04-20T04:33:58.112Z,38.15
2019-04-20T04:36:35.929Z,43.80
2019-04-20T04:39:15.480Z,42.48
2019-04-20T04:42:05.215Z,40.10
2019-04-20T04:44:26.300Z,40.78
2019-04-20T04:46:56.060Z,41.73
2019-04-20T04:49:34.399Z,49.40
2019-04-20T04:52:10.329Z,50.55
2019-04-20T04:54:53.334Z,48.65
2019-04-20T04:57:22.244Z,50.78
2019-04-20T04:59:59.438Z,52.25
2019-04-20T05:02:43.251Z,48.17
2019-04-20T05:05:35.558Z,50.15
2019-04-20T05:08:02.920Z,51.55
2019-04-20T05:10:31.221Z,52.20
2019-04-20T05:13:07.205Z,53.08
2019-04-20T05:15:57.997Z,56.42
2019-04-20T05:18:48.359Z,56.23
2019-04-20T05:21:21.620Z,53.15
2019-04-20T05:24:04.498Z,49.42
2019-04-20T05:26:53.417Z,57.30
2019-04-20T05:31:49.044Z,51.65
2019-04-20T05:34:45.388Z,64.47
2019-04-20T05:37:27.218Z,72.78
2019-04-20T05:39:57.762Z,60.30
2019-04-20T05:42:40.711Z,77.78
2019-04-20T05:45:11.564Z,55.95
2019-04-20T05:47:50.835Z,66.95
2019-04-20T05:50:28.958Z,57.48
2019-04-20T05:53:07.253Z,60.40
2019-04-20T05:55:47.255Z,55.30
2019-04-20T05:58:22.090Z,60.78
2019-04-20T06:01:02.815Z,56.73
2019-04-20T06:03:32.229Z,57.67
2019-04-20T06:06:20.626Z,57.65
2019-04-20T06:08:59.597Z,60.03
2019-04-20T06:11:32.005Z,62.67
2019-04-20T06:14:11.373Z,61.10
2019-04-20T06:17:04.872Z,59.13
2019-04-20T06:19:39.535Z,57.45
2019-04-20T06:22:28.558Z,54.93
2019-04-20T06:25:17.021Z,56.18
2019-04-20T06:27:49.939Z,60.85
2019-04-20T06:30:14.085Z,62.55
2019-04-20T06:33:55.294Z,65.70
2019-04-20T06:36:24.196Z,64.85
2019-04-20T06:39:02.283Z,59.98
2019-04-20T06:41:45.542Z,56.40
2019-04-20T06:44:21.591Z,53.35
2019-04-20T06:46:53.659Z,50.92
2019-04-20T06:49:31.518Z,54.80
2019-04-20T06:52:13.769Z,50.63
2019-04-20T06:54:45.174Z,56.10
2019-04-20T06:57:18.458Z,50.08
2019-04-20T07:02:35.982Z,47.25
2019-04-20T07:05:12.760Z,48.75
2019-04-20T07:07:54.773Z,48.50
2019-04-20T07:10:32.476Z,47.25
2019-04-20T07:13:00.280Z,55.20
2019-04-20T07:15:40.138Z,49.55
2019-04-20T07:18:29.927Z,50.43
2019-04-20T07:21:12.775Z,48.28
2019-04-20T07:23:54.527Z,52.00
2019-04-20T07:26:31.295Z,50.88
2019-04-20T07:29:13.658Z,47.85
2019-04-20T07:31:39.352Z,46.02
2019-04-20T07:34:21.084Z,44.35
2019-04-20T07:37:09.843Z,48.23
2019-04-20T07:39:36.383Z,47.48
2019-04-20T07:42:16.747Z,47.75
2019-04-20T07:44:57.984Z,42.10
2019-04-20T07:47:38.699Z,43.25
2019-04-20T07:50:04.917Z,49.05
2019-04-20T07:52:36.987Z,45.52
2019-04-20T07:57:53.722Z,45.08
2019-04-20T08:00:51.934Z,44.80
2019-04-20T08:03:32.069Z,47.85
2019-04-20T08:05:51.202Z,41.75
2019-04-20T08:08:32.745Z,42.93
2019-04-20T08:11:17.876Z,44.33
2019-04-20T08:13:58.727Z,42.03
2019-04-20T08:16:42.378Z,44.73
2019-04-20T08:19:04.752Z,45.20
2019-04-20T08:21:47.300Z,45.17
2019-04-20T08:24:21.317Z,40.92
2019-04-20T08:26:50.339Z,39.08
2019-04-20T08:29:41.796Z,35.40
2019-04-20T08:35:05.233Z,39.33
2019-04-20T08:37:40.192Z,28.85
2019-04-20T08:40:19.555Z,29.92
2019-04-20T08:43:02.464Z,28.30
2019-04-20T08:48:17.412Z,28.10
2019-04-20T08:50:51.340Z,31.42
2019-04-20T08:53:33.497Z,22.17
2019-04-20T08:55:59.076Z,28.45
2019-04-20T08:58:23.271Z,22.90
2019-04-20T09:01:03.356Z,19.65
2019-04-20T09:03:51.229Z,26.87
2019-04-20T09:06:32.328Z,20.48
2019-04-20T09:09:19.770Z,24.15
2019-04-20T09:11:49.236Z,25.25
2019-04-20T09:14:10.928Z,18.25
2019-04-20T09:16:57.070Z,25.23
2019-04-20T09:19:42.130Z,27.22
2019-04-20T09:22:34.265Z,22.35
2019-04-20T09:25:50.327Z,25.65
2019-04-20T09:28:07.490Z,23.15
2019-04-20T09:30:48.133Z,18.90
2019-04-20T09:33:44.138Z,13.62
2019-04-20T09:36:39.828Z,20.32
2019-04-20T09:39:21.381Z,18.67
2019-04-20T09:42:00.753Z,17.98
2019-04-20T09:44:37.520Z,17.35
2019-04-20T09:47:10.464Z,17.05
2019-04-20T09:49:58.036Z,18.27
2019-04-20T09:52:39.903Z,19.27
2019-04-20T09:55:18.760Z,17.05
2019-04-20T09:58:05.164Z,15.00
2019-04-20T10:00:58.825Z,17.37
2019-04-20T10:03:22.708Z,17.65
2019-04-20T10:05:59.275Z,19.73
2019-04-20T10:08:44.749Z,16.40
2019-04-20T10:11:14.141Z,19.95
2019-04-20T10:13:52.278Z,16.60
2019-04-20T10:16:29.464Z,16.80
2019-04-20T10:19:07.180Z,20.43
2019-04-20T10:21:43.643Z,16.65
2019-04-20T10:24:20.907Z,15.70
2019-04-20T10:26:57.038Z,13.85
2019-04-20T10:29:35.474Z,19.87
2019-04-20T10:32:15.522Z,17.55
2019-04-20T10:34:50.699Z,13.55
2019-04-20T10:37:29.344Z,15.18
2019-04-20T10:40:07.268Z,13.15
2019-04-20T10:42:44.009Z,18.80
2019-04-20T10:45:21.271Z,14.65
2019-04-20T10:47:57.398Z,17.15
2019-04-20T10:50:34.512Z,16.60
2019-04-20T10:53:12.105Z,11.48
2019-04-20T10:55:49.520Z,9.33
2019-04-20T10:58:25.615Z,7.50
2019-04-20T11:01:01.808Z,7.47
2019-04-20T11:03:38.456Z,11.40
2019-04-20T11:06:14.622Z,14.75
2019-04-20T11:08:50.809Z,13.83
2019-04-20T11:11:29.180Z,9.63
2019-04-20T11:14:08.348Z,13.15
2019-04-20T11:16:44.386Z,15.25
2019-04-20T11:19:21.176Z,12.60
2019-04-20T11:21:58.497Z,9.38
2019-04-20T11:24:34.623Z,10.53
2019-04-20T11:27:12.052Z,13.58
2019-04-20T11:29:49.836Z,8.78
2019-04-20T11:32:26.297Z,12.23
2019-04-20T11:35:11.079Z,9.53
2019-04-20T11:37:39.992Z,12.70
2019-04-20T11:40:17.000Z,10.60
2019-04-20T11:42:53.383Z,10.32
2019-04-20T11:45:30.825Z,18.45
2019-04-20T11:48:07.484Z,13.62
2019-04-20T11:50:43.502Z,10.70
2019-04-20T11:53:19.473Z,11.63
2019-04-20T11:55:56.277Z,12.35
2019-04-20T11:58:33.136Z,14.47
2019-04-20T12:01:27.175Z,11.08
2019-04-20T12:04:09.280Z,11.47
2019-04-20T12:06:39.125Z,12.75
2019-04-20T12:09:15.217Z,13.03
2019-04-20T12:12:04.178Z,9.23
2019-04-20T12:14:28.797Z,10.65
2019-04-20T12:17:05.898Z,11.85
2019-04-20T12:19:43.873Z,11.40
2019-04-20T12:22:19.895Z,12.28
2019-04-20T12:24:56.243Z,8.73
2019-04-20T12:27:32.553Z,14.90
2019-04-20T12:30:12.094Z,9.68
2019-04-20T12:32:52.654Z,13.80
2019-04-20T12:35:26.494Z,10.45
2019-04-20T12:38:03.107Z,9.25
2019-04-20T12:40:39.953Z,9.08
2019-04-20T12:43:17.197Z,9.13
2019-04-20T12:45:53.838Z,8.68
2019-04-20T12:48:31.506Z,12.53
2019-04-20T12:51:07.832Z,10.60
2019-04-20T12:53:44.540Z,10.08
2019-04-20T12:56:20.491Z,8.68
2019-04-20T12:58:57.780Z,12.73
2019-04-20T13:01:33.716Z,8.00
2019-04-20T13:04:09.678Z,14.03
2019-04-20T13:06:46.976Z,8.93
2019-04-20T13:09:23.142Z,10.85
2019-04-20T13:12:05.476Z,10.15
2019-04-20T13:14:52.701Z,9.80
2019-04-20T13:17:28.586Z,12.20
2019-04-20T13:20:07.887Z,10.32
2019-04-20T13:22:44.317Z,9.98
2019-04-20T13:25:21.058Z,12.10
2019-04-20T13:27:57.164Z,8.63
2019-04-20T13:30:33.527Z,9.78
2019-04-20T13:33:10.120Z,9.65
2019-04-20T13:35:46.267Z,8.43
2019-04-20T13:38:22.512Z,10.40
2019-04-20T13:40:59.887Z,11.33
2019-04-20T13:43:35.971Z,7.90
2019-04-20T13:46:13.263Z,9.55
2019-04-20T13:48:49.419Z,12.35
2019-04-20T13:51:26.542Z,11.22
2019-04-20T13:54:07.379Z,9.18
2019-04-20T13:56:41.768Z,13.45
2019-04-20T13:59:25.857Z,9.58
2019-04-20T14:02:06.831Z,11.15
2019-04-20T14:04:44.568Z,9.07
2019-04-20T14:07:21.884Z,10.23
2019-04-20T14:09:57.950Z,15.60
2019-04-20T14:12:38.622Z,9.18
2019-04-20T14:15:13.217Z,11.00
2019-04-20T14:17:49.254Z,8.55
2019-04-20T14:20:26.021Z,11.95
2019-04-20T14:23:03.216Z,10.35
2019-04-20T14:25:39.323Z,11.57
2019-04-20T14:28:15.520Z,7.87
2019-04-20T14:30:52.015Z,14.28
2019-04-20T14:33:28.628Z,10.82
2019-04-20T14:36:05.209Z,50.98
2019-04-20T14:38:43.731Z,15.00
2019-04-20T14:41:20.143Z,11.53
2019-04-20T14:43:57.286Z,6.67
2019-04-20T14:46:33.644Z,12.30
2019-04-20T14:49:10.423Z,9.63
2019-04-20T14:51:47.723Z,8.20
2019-04-20T14:54:23.864Z,11.35
2019-04-20T14:57:01.265Z,8.30
2019-04-20T14:59:39.065Z,8.95
2019-04-20T15:02:17.398Z,9.85
2019-04-20T15:04:54.823Z,13.85
2019-04-20T15:07:30.952Z,7.80
2019-04-20T15:10:08.999Z,13.13
2019-04-20T15:12:49.917Z,9.83
2019-04-20T15:15:22.948Z,8.98
2019-04-20T15:18:09.459Z,10.55
2019-04-20T15:20:47.795Z,7.62
2019-04-20T15:23:25.708Z,6.78
2019-04-20T15:26:02.433Z,6.70
2019-04-20T15:28:38.648Z,8.73
2019-04-20T15:31:14.696Z,11.80
2019-04-20T15:33:50.888Z,7.72
2019-04-20T15:36:28.365Z,8.70
2019-04-20T15:39:07.327Z,8.05
2019-04-20T15:41:45.298Z,12.37
2019-04-20T15:44:23.242Z,7.22
2019-04-20T15:46:59.436Z,8.65
2019-04-20T15:49:35.842Z,8.80
2019-04-20T15:52:17.906Z,9.73
2019-04-20T15:54:49.949Z,9.35
2019-04-20T15:57:29.135Z,8.20
2019-04-20T16:00:06.561Z,9.48
2019-04-20T16:02:53.698Z,12.75
2019-04-20T16:05:49.629Z,8.85
2019-04-20T16:08:38.975Z,8.33
2019-04-20T16:11:15.347Z,22.45
2019-04-20T16:13:53.903Z,8.40
2019-04-20T16:16:29.967Z,9.25
2019-04-20T16:19:13.637Z,33.70
2019-04-20T16:21:43.929Z,11.53
2019-04-20T16:24:22.349Z,10.00
2019-04-20T16:26:59.912Z,6.08
2019-04-20T16:29:36.421Z,9.00
2019-04-20T16:32:14.361Z,13.25
2019-04-20T16:34:50.742Z,9.35
2019-04-20T16:37:26.719Z,8.75
2019-04-20T16:40:04.295Z,7.72
2019-04-20T16:42:42.265Z,5.42
2019-04-20T16:45:19.145Z,7.53
2019-04-20T16:47:55.141Z,6.95
2019-04-20T16:50:31.301Z,7.40
2019-04-20T16:53:08.769Z,8.28
2019-04-20T16:55:45.378Z,8.63
2019-04-20T16:58:21.735Z,7.28
2019-04-20T17:00:59.266Z,10.63
2019-04-20T17:03:45.970Z,7.97
2019-04-20T17:06:13.847Z,8.73
2019-04-20T17:08:51.202Z,11.10
2019-04-20T17:11:27.768Z,8.10
2019-04-20T17:14:03.822Z,11.28
2019-04-20T17:16:39.788Z,11.28
2019-04-20T17:19:15.731Z,7.97
2019-04-20T17:21:53.379Z,12.35
2019-04-20T17:24:29.687Z,8.15
2019-04-20T17:27:10.852Z,21.68
2019-04-20T17:30:05.260Z,73.30
2019-04-20T17:32:43.359Z,43.73
2019-04-20T17:35:32.878Z,71.77
2019-04-20T17:37:58.437Z,21.25
2019-04-20T17:40:55.914Z,19.55
2019-04-20T17:43:22.994Z,15.80
2019-04-20T17:46:00.656Z,36.98
2019-04-20T17:48:39.964Z,40.15
2019-04-20T17:51:27.734Z,48.50
2019-04-20T17:53:54.546Z,22.93
2019-04-20T17:56:26.414Z,27.17
2019-04-20T17:59:02.409Z,17.82
2019-04-20T18:02:07.831Z,15.00
2019-04-20T18:05:14.495Z,25.50
2019-04-20T18:07:46.287Z,31.87
2019-04-20T18:10:22.661Z,38.58
2019-04-20T18:12:46.262Z,57.67
2019-04-20T18:15:39.074Z,74.82
2019-04-20T18:18:32.385Z,60.38
2019-04-20T18:21:10.806Z,54.95
2019-04-20T18:23:49.836Z,28.77
2019-04-20T18:26:45.448Z,20.75
2019-04-20T18:29:25.674Z,36.70
2019-04-20T18:31:57.712Z,37.63
2019-04-20T18:34:45.836Z,145.72
2019-04-20T18:37:21.464Z,297.88
2019-04-20T18:40:03.086Z,206.02
2019-04-20T18:42:40.665Z,157.47
2019-04-20T18:45:28.463Z,132.95
2019-04-20T18:48:11.690Z,277.35
2019-04-20T18:50:37.670Z,108.22
2019-04-20T18:53:05.995Z,146.95
2019-04-20T18:55:52.741Z,130.65
2019-04-20T18:58:31.216Z,130.75
2019-04-20T19:01:07.630Z,256.57
2019-04-20T19:03:45.520Z,227.13
2019-04-20T19:06:21.528Z,183.68
2019-04-20T19:08:58.990Z,497.35
2019-04-20T19:11:55.899Z,178.97
2019-04-20T19:14:34.932Z,64.27
2019-04-20T19:17:17.218Z,59.05
2019-04-20T19:19:53.441Z,45.23
2019-04-20T19:22:28.085Z,52.85
2019-04-20T19:25:05.600Z,55.67
2019-04-20T19:27:48.568Z,51.92
2019-04-20T19:30:31.339Z,56.02
2019-04-20T19:33:17.557Z,39.48
2019-04-20T19:35:48.143Z,38.73
2019-04-20T19:38:20.677Z,37.80
2019-04-20T19:41:01.735Z,36.25
2019-04-20T19:43:41.137Z,38.67
2019-04-20T19:46:39.669Z,33.70
2019-04-20T19:48:56.551Z,38.00
2019-04-20T19:51:47.679Z,37.23
2019-04-20T19:54:26.914Z,38.90
2019-04-20T19:56:58.287Z,37.50
2019-04-20T19:59:25.983Z,42.40
2019-04-20T20:01:57.962Z,39.85
2019-04-20T20:04:41.443Z,44.63
2019-04-20T20:07:21.983Z,40.15
2019-04-20T20:09:55.519Z,41.77
2019-04-20T20:12:29.527Z,47.58
2019-04-20T20:15:14.847Z,65.42
2019-04-20T20:18:05.809Z,59.48
2019-04-20T20:20:41.247Z,52.25
2019-04-20T20:23:01.602Z,44.38
2019-04-20T20:25:44.683Z,40.95
2019-04-20T20:28:32.241Z,42.62
2019-04-20T20:31:12.369Z,36.20
2019-04-20T20:33:55.948Z,37.90
2019-04-20T20:36:23.003Z,42.43
2019-04-20T20:39:04.484Z,35.20
2019-04-20T20:41:45.072Z,42.25
2019-04-20T20:44:26.096Z,46.35
2019-04-20T20:47:00.787Z,50.95
2019-04-20T20:49:48.649Z,49.48
2019-04-20T20:52:21.912Z,46.75
2019-04-20T20:54:56.492Z,44.60
2019-04-20T20:57:24.353Z,47.50
2019-04-20T21:00:03.676Z,54.95
2019-04-20T21:02:44.733Z,66.57
2019-04-20T21:05:15.559Z,70.70
2019-04-20T21:07:51.713Z,69.58
2019-04-20T21:10:33.077Z,56.65
2019-04-20T21:13:10.031Z,56.08
2019-04-20T21:15:52.269Z,48.95
2019-04-20T21:18:43.524Z,47.35
2019-04-20T21:21:17.028Z,54.85
2019-04-20T21:23:48.135Z,55.12
2019-04-20T21:26:28.033Z,48.20
2019-04-20T21:28:52.982Z,64.45
2019-04-20T21:31:29.713Z,62.85
2019-04-20T21:34:12.654Z,68.22
2019-04-20T21:36:45.059Z,68.02
2019-04-20T21:39:32.429Z,68.28
2019-04-20T21:42:05.411Z,80.70
2019-04-20T21:44:41.344Z,79.20
2019-04-20T21:47:17.726Z,86.02
2019-04-20T21:50:09.842Z,89.87
2019-04-20T21:52:36.139Z,82.88
2019-04-20T21:55:08.314Z,82.37
2019-04-20T21:57:50.115Z,79.40
2019-04-20T22:00:44.536Z,157.85
2019-04-20T22:03:18.536Z,464.65
2019-04-20T22:06:04.511Z,395.40
2019-04-20T22:08:49.594Z,277.20
2019-04-20T22:11:20.052Z,198.15
2019-04-20T22:13:57.369Z,140.22
2019-04-20T22:16:38.884Z,122.13
2019-04-20T22:19:26.438Z,110.10
2019-04-20T22:22:00.999Z,96.67
2019-04-20T22:24:57.790Z,78.67
2019-04-20T22:27:36.703Z,69.35
2019-04-20T22:30:24.054Z,67.03
2019-04-20T22:33:18.571Z,54.93
2019-04-20T22:36:04.112Z,67.92
2019-04-20T22:38:59.432Z,63.45
2019-04-20T22:41:54.670Z,68.10
2019-04-20T22:44:30.346Z,68.35
2019-04-20T22:47:13.883Z,67.82
2019-04-20T22:50:07.856Z,71.50
2019-04-20T22:52:43.052Z,53.83
2019-04-20T22:55:27.110Z,58.05
2019-04-20T22:57:54.653Z,58.20
2019-04-20T23:00:36.525Z,58.63
2019-04-20T23:03:00.845Z,62.20
2019-04-20T23:05:38.618Z,59.35
2019-04-20T23:08:15.005Z,62.03
2019-04-20T23:10:51.451Z,61.28
2019-04-20T23:13:34.360Z,56.25
2019-04-20T23:16:06.108Z,59.60
2019-04-20T23:18:44.315Z,60.78
2019-04-20T23:21:21.715Z,58.40
2019-04-20T23:24:00.328Z,58.25
2019-04-20T23:26:38.692Z,50.28
2019-04-20T23:29:13.412Z,50.43
2019-04-20T23:31:56.937Z,50.20
2019-04-20T23:34:30.988Z,54.95
2019-04-20T23:37:09.924Z,51.77
2019-04-20T23:39:44.995Z,55.00
2019-04-20T23:42:27.972Z,51.90
2019-04-20T23:45:07.540Z,48.85
2019-04-20T23:47:54.118Z,52.60
2019-04-20T23:50:43.567Z,50.85
2019-04-20T23:53:19.844Z,39.92
2019-04-20T23:55:41.685Z,48.55
2019-04-20T23:58:18.219Z,50.88
